Terminal Aerodrome Forecast
Issued by NWS

Home | Current Version | Previous Version | Text Only | Print | Product List | Glossary On
Versions: 1 2 3 4 5 6 7 8 9 10 11 12 13
000
FTUS46 KSEW 240525
TAFHQM
TAF
KHQM 240525Z 2406/2506 14020G30KT 2SM -RA BR SCT010 BKN020 OVC025
     FM241000 18010KT 5SM -SHRA BR SCT010 OVC020
     FM242200 10006KT P6SM -SHRA SCT020 OVC050
     FM250000 16020G30KT P6SM -SHRA SCT015 OVC030=

USA.gov is the U.S. government's official web portal to all federal, state and local government web resources and services.